sensor_id;sensor_type;location;lat;lon;timestamp;P1;durP1;ratioP1;P2;durP2;ratioP2
18822;SDS011;9540;51.550;7.980;2023-05-07T00:01:47;11.48;;;5.78;;
18822;SDS011;9540;51.550;7.980;2023-05-07T00:04:14;7.63;;;5.70;;
18822;SDS011;9540;51.550;7.980;2023-05-07T00:06:42;9.25;;;7.32;;
18822;SDS011;9540;51.550;7.980;2023-05-07T00:09:09;7.78;;;5.80;;
18822;SDS011;9540;51.550;7.980;2023-05-07T00:11:37;8.05;;;6.00;;
18822;SDS011;9540;51.550;7.980;2023-05-07T00:14:04;15.07;;;7.70;;
18822;SDS011;9540;51.550;7.980;2023-05-07T00:16:31;11.23;;;7.43;;
18822;SDS011;9540;51.550;7.980;2023-05-07T00:18:58;15.15;;;7.90;;
18822;SDS011;9540;51.550;7.980;2023-05-07T00:21:25;13.60;;;8.25;;
18822;SDS011;9540;51.550;7.980;2023-05-07T00:23:53;14.38;;;9.13;;
18822;SDS011;9540;51.550;7.980;2023-05-07T00:26:21;12.05;;;8.32;;
18822;SDS011;9540;51.550;7.980;2023-05-07T00:28:48;15.15;;;9.43;;
18822;SDS011;9540;51.550;7.980;2023-05-07T00:31:15;13.85;;;9.00;;
18822;SDS011;9540;51.550;7.980;2023-05-07T00:33:42;16.65;;;9.60;;
18822;SDS011;9540;51.550;7.980;2023-05-07T00:36:09;14.73;;;8.75;;
18822;SDS011;9540;51.550;7.980;2023-05-07T00:38:36;11.60;;;8.43;;
18822;SDS011;9540;51.550;7.980;2023-05-07T00:41:06;14.68;;;8.85;;
18822;SDS011;9540;51.550;7.980;2023-05-07T00:43:33;13.13;;;8.23;;
18822;SDS011;9540;51.550;7.980;2023-05-07T00:46:00;19.20;;;9.70;;
18822;SDS011;9540;51.550;7.980;2023-05-07T00:48:27;13.02;;;9.95;;
18822;SDS011;9540;51.550;7.980;2023-05-07T00:50:54;15.40;;;10.07;;
18822;SDS011;9540;51.550;7.980;2023-05-07T00:53:22;16.08;;;10.52;;
18822;SDS011;9540;51.550;7.980;2023-05-07T00:55:50;15.68;;;9.63;;
18822;SDS011;9540;51.550;7.980;2023-05-07T00:58:18;15.98;;;9.65;;
18822;SDS011;9540;51.550;7.980;2023-05-07T01:00:47;15.43;;;9.15;;
18822;SDS011;9540;51.550;7.980;2023-05-07T01:03:15;17.58;;;9.75;;
18822;SDS011;9540;51.550;7.980;2023-05-07T01:05:42;14.68;;;9.07;;
18822;SDS011;9540;51.550;7.980;2023-05-07T01:08:11;19.85;;;10.45;;
18822;SDS011;9540;51.550;7.980;2023-05-07T01:10:38;18.20;;;11.10;;
18822;SDS011;9540;51.550;7.980;2023-05-07T01:13:08;21.90;;;11.15;;
18822;SDS011;9540;51.550;7.980;2023-05-07T01:15:37;15.68;;;9.45;;
18822;SDS011;9540;51.550;7.980;2023-05-07T01:18:05;19.25;;;9.07;;
18822;SDS011;9540;51.550;7.980;2023-05-07T01:20:33;20.20;;;12.13;;
18822;SDS011;9540;51.550;7.980;2023-05-07T01:23:02;32.72;;;12.32;;
18822;SDS011;9540;51.550;7.980;2023-05-07T01:25:30;26.30;;;10.85;;
18822;SDS011;9540;51.550;7.980;2023-05-07T01:27:57;24.38;;;12.20;;
18822;SDS011;9540;51.550;7.980;2023-05-07T01:30:26;19.20;;;12.18;;
18822;SDS011;9540;51.550;7.980;2023-05-07T01:32:56;26.60;;;12.40;;
18822;SDS011;9540;51.550;7.980;2023-05-07T01:35:29;16.63;;;11.65;;
18822;SDS011;9540;51.550;7.980;2023-05-07T01:37:58;21.17;;;11.85;;
18822;SDS011;9540;51.550;7.980;2023-05-07T01:40:28;23.92;;;12.45;;
18822;SDS011;9540;51.550;7.980;2023-05-07T01:42:55;14.50;;;10.70;;
18822;SDS011;9540;51.550;7.980;2023-05-07T01:45:22;23.05;;;11.95;;
18822;SDS011;9540;51.550;7.980;2023-05-07T01:47:50;28.80;;;12.40;;
18822;SDS011;9540;51.550;7.980;2023-05-07T01:50:18;23.30;;;11.98;;
18822;SDS011;9540;51.550;7.980;2023-05-07T01:52:47;19.00;;;11.10;;
18822;SDS011;9540;51.550;7.980;2023-05-07T01:55:16;24.80;;;12.63;;
18822;SDS011;9540;51.550;7.980;2023-05-07T01:57:45;27.60;;;12.50;;
18822;SDS011;9540;51.550;7.980;2023-05-07T02:00:12;26.90;;;12.57;;
18822;SDS011;9540;51.550;7.980;2023-05-07T02:02:40;20.92;;;10.60;;
18822;SDS011;9540;51.550;7.980;2023-05-07T02:05:07;22.38;;;11.60;;
18822;SDS011;9540;51.550;7.980;2023-05-07T02:07:35;23.30;;;12.32;;
18822;SDS011;9540;51.550;7.980;2023-05-07T02:10:02;26.42;;;13.60;;
18822;SDS011;9540;51.550;7.980;2023-05-07T02:12:30;19.08;;;11.40;;
18822;SDS011;9540;51.550;7.980;2023-05-07T02:14:58;20.10;;;12.38;;
18822;SDS011;9540;51.550;7.980;2023-05-07T02:17:25;21.17;;;10.73;;
18822;SDS011;9540;51.550;7.980;2023-05-07T02:19:52;21.92;;;11.00;;
18822;SDS011;9540;51.550;7.980;2023-05-07T02:22:19;21.83;;;11.48;;
18822;SDS011;9540;51.550;7.980;2023-05-07T02:24:46;18.08;;;10.18;;
18822;SDS011;9540;51.550;7.980;2023-05-07T02:27:14;22.40;;;11.30;;
18822;SDS011;9540;51.550;7.980;2023-05-07T02:29:41;19.60;;;10.65;;
18822;SDS011;9540;51.550;7.980;2023-05-07T02:32:09;28.35;;;11.48;;
18822;SDS011;9540;51.550;7.980;2023-05-07T02:34:37;21.90;;;10.18;;
18822;SDS011;9540;51.550;7.980;2023-05-07T02:37:04;25.30;;;11.15;;
18822;SDS011;9540;51.550;7.980;2023-05-07T02:39:31;37.63;;;9.50;;
18822;SDS011;9540;51.550;7.980;2023-05-07T02:41:58;51.63;;;7.90;;
18822;SDS011;9540;51.550;7.980;2023-05-07T02:44:25;59.97;;;9.60;;
18822;SDS011;9540;51.550;7.980;2023-05-07T02:46:52;41.72;;;9.68;;
18822;SDS011;9540;51.550;7.980;2023-05-07T02:49:20;84.57;;;14.18;;
18822;SDS011;9540;51.550;7.980;2023-05-07T02:51:47;38.60;;;11.82;;
18822;SDS011;9540;51.550;7.980;2023-05-07T02:54:15;21.92;;;10.82;;
18822;SDS011;9540;51.550;7.980;2023-05-07T02:56:43;25.30;;;10.00;;
18822;SDS011;9540;51.550;7.980;2023-05-07T02:59:10;17.83;;;9.45;;
18822;SDS011;9540;51.550;7.980;2023-05-07T03:01:37;35.58;;;12.20;;
18822;SDS011;9540;51.550;7.980;2023-05-07T03:04:04;14.77;;;9.45;;
18822;SDS011;9540;51.550;7.980;2023-05-07T03:06:32;24.05;;;10.80;;
18822;SDS011;9540;51.550;7.980;2023-05-07T03:08:59;22.65;;;10.68;;
18822;SDS011;9540;51.550;7.980;2023-05-07T03:11:26;23.65;;;12.75;;
18822;SDS011;9540;51.550;7.980;2023-05-07T03:13:54;20.27;;;12.25;;
18822;SDS011;9540;51.550;7.980;2023-05-07T03:16:21;16.08;;;11.00;;
18822;SDS011;9540;51.550;7.980;2023-05-07T03:18:48;17.92;;;11.68;;
18822;SDS011;9540;51.550;7.980;2023-05-07T03:21:15;21.27;;;13.20;;
18822;SDS011;9540;51.550;7.980;2023-05-07T03:23:43;29.98;;;15.38;;
18822;SDS011;9540;51.550;7.980;2023-05-07T03:26:11;23.98;;;13.20;;
18822;SDS011;9540;51.550;7.980;2023-05-07T03:28:38;26.17;;;14.07;;
18822;SDS011;9540;51.550;7.980;2023-05-07T03:31:05;21.20;;;12.32;;
18822;SDS011;9540;51.550;7.980;2023-05-07T03:33:32;18.73;;;10.95;;
18822;SDS011;9540;51.550;7.980;2023-05-07T03:36:00;26.73;;;12.35;;
18822;SDS011;9540;51.550;7.980;2023-05-07T03:38:27;23.95;;;11.98;;
18822;SDS011;9540;51.550;7.980;2023-05-07T03:40:56;24.60;;;11.70;;
18822;SDS011;9540;51.550;7.980;2023-05-07T03:43:24;20.55;;;12.77;;
18822;SDS011;9540;51.550;7.980;2023-05-07T03:45:51;27.13;;;12.20;;
18822;SDS011;9540;51.550;7.980;2023-05-07T03:48:18;30.98;;;11.75;;
18822;SDS011;9540;51.550;7.980;2023-05-07T03:50:45;54.45;;;12.02;;
18822;SDS011;9540;51.550;7.980;2023-05-07T03:53:12;19.27;;;12.88;;
18822;SDS011;9540;51.550;7.980;2023-05-07T03:55:40;26.60;;;13.05;;
18822;SDS011;9540;51.550;7.980;2023-05-07T03:58:08;22.05;;;12.35;;
18822;SDS011;9540;51.550;7.980;2023-05-07T04:00:35;25.35;;;13.55;;
18822;SDS011;9540;51.550;7.980;2023-05-07T04:03:04;20.23;;;11.82;;
18822;SDS011;9540;51.550;7.980;2023-05-07T04:05:31;26.75;;;12.57;;
18822;SDS011;9540;51.550;7.980;2023-05-07T04:07:58;36.67;;;13.82;;
18822;SDS011;9540;51.550;7.980;2023-05-07T04:10:26;35.53;;;15.15;;
18822;SDS011;9540;51.550;7.980;2023-05-07T04:12:54;31.90;;;15.35;;
18822;SDS011;9540;51.550;7.980;2023-05-07T04:15:23;29.90;;;14.20;;
18822;SDS011;9540;51.550;7.980;2023-05-07T04:17:50;25.08;;;13.07;;
18822;SDS011;9540;51.550;7.980;2023-05-07T04:20:17;21.23;;;13.25;;
18822;SDS011;9540;51.550;7.980;2023-05-07T04:22:45;21.83;;;12.98;;
18822;SDS011;9540;51.550;7.980;2023-05-07T04:25:12;23.00;;;12.88;;
18822;SDS011;9540;51.550;7.980;2023-05-07T04:27:39;22.90;;;12.80;;
18822;SDS011;9540;51.550;7.980;2023-05-07T04:30:06;29.13;;;13.25;;
18822;SDS011;9540;51.550;7.980;2023-05-07T04:32:35;19.50;;;12.95;;
18822;SDS011;9540;51.550;7.980;2023-05-07T04:35:03;37.92;;;15.02;;
18822;SDS011;9540;51.550;7.980;2023-05-07T04:37:31;40.17;;;15.52;;
18822;SDS011;9540;51.550;7.980;2023-05-07T04:39:58;32.70;;;14.20;;
18822;SDS011;9540;51.550;7.980;2023-05-07T04:42:26;29.27;;;13.65;;
18822;SDS011;9540;51.550;7.980;2023-05-07T04:44:53;27.25;;;14.70;;
18822;SDS011;9540;51.550;7.980;2023-05-07T04:47:21;21.85;;;12.65;;
18822;SDS011;9540;51.550;7.980;2023-05-07T04:49:49;37.03;;;14.63;;
18822;SDS011;9540;51.550;7.980;2023-05-07T04:52:16;32.70;;;16.15;;
18822;SDS011;9540;51.550;7.980;2023-05-07T04:54:43;29.90;;;14.70;;
18822;SDS011;9540;51.550;7.980;2023-05-07T04:57:10;27.67;;;15.02;;
18822;SDS011;9540;51.550;7.980;2023-05-07T04:59:37;20.67;;;11.95;;
18822;SDS011;9540;51.550;7.980;2023-05-07T05:02:04;38.92;;;14.75;;
18822;SDS011;9540;51.550;7.980;2023-05-07T05:04:31;34.65;;;14.63;;
18822;SDS011;9540;51.550;7.980;2023-05-07T05:07:00;35.63;;;14.50;;
18822;SDS011;9540;51.550;7.980;2023-05-07T05:09:28;30.10;;;13.90;;
18822;SDS011;9540;51.550;7.980;2023-05-07T05:11:56;22.27;;;13.40;;
18822;SDS011;9540;51.550;7.980;2023-05-07T05:14:23;21.50;;;13.15;;
18822;SDS011;9540;51.550;7.980;2023-05-07T05:16:50;24.48;;;13.25;;
18822;SDS011;9540;51.550;7.980;2023-05-07T05:19:17;22.17;;;12.50;;
18822;SDS011;9540;51.550;7.980;2023-05-07T05:21:44;24.35;;;12.50;;
18822;SDS011;9540;51.550;7.980;2023-05-07T05:24:12;22.80;;;11.90;;
18822;SDS011;9540;51.550;7.980;2023-05-07T05:26:40;22.45;;;11.45;;
18822;SDS011;9540;51.550;7.980;2023-05-07T05:29:07;23.88;;;11.93;;
18822;SDS011;9540;51.550;7.980;2023-05-07T05:31:34;20.92;;;12.25;;
18822;SDS011;9540;51.550;7.980;2023-05-07T05:34:01;24.73;;;12.13;;
18822;SDS011;9540;51.550;7.980;2023-05-07T05:36:29;23.25;;;11.90;;
18822;SDS011;9540;51.550;7.980;2023-05-07T05:38:57;23.27;;;12.52;;
18822;SDS011;9540;51.550;7.980;2023-05-07T05:41:25;22.50;;;12.70;;
18822;SDS011;9540;51.550;7.980;2023-05-07T05:43:52;24.67;;;11.95;;
18822;SDS011;9540;51.550;7.980;2023-05-07T05:46:19;17.70;;;11.98;;
18822;SDS011;9540;51.550;7.980;2023-05-07T05:48:47;28.38;;;13.70;;
18822;SDS011;9540;51.550;7.980;2023-05-07T05:51:14;30.30;;;14.23;;
18822;SDS011;9540;51.550;7.980;2023-05-07T05:53:41;26.40;;;13.75;;
18822;SDS011;9540;51.550;7.980;2023-05-07T05:56:08;29.05;;;14.15;;
18822;SDS011;9540;51.550;7.980;2023-05-07T05:58:37;31.35;;;16.27;;
18822;SDS011;9540;51.550;7.980;2023-05-07T06:01:04;22.88;;;14.50;;
18822;SDS011;9540;51.550;7.980;2023-05-07T06:03:31;27.52;;;18.33;;
18822;SDS011;9540;51.550;7.980;2023-05-07T06:05:58;28.77;;;16.45;;
18822;SDS011;9540;51.550;7.980;2023-05-07T06:08:28;31.00;;;16.27;;
18822;SDS011;9540;51.550;7.980;2023-05-07T06:10:55;33.85;;;18.42;;
18822;SDS011;9540;51.550;7.980;2023-05-07T06:13:23;35.28;;;20.73;;
18822;SDS011;9540;51.550;7.980;2023-05-07T06:15:51;31.77;;;18.17;;
18822;SDS011;9540;51.550;7.980;2023-05-07T06:18:18;31.95;;;21.88;;
18822;SDS011;9540;51.550;7.980;2023-05-07T06:20:45;30.65;;;20.73;;
18822;SDS011;9540;51.550;7.980;2023-05-07T06:23:13;33.88;;;20.98;;
18822;SDS011;9540;51.550;7.980;2023-05-07T06:25:40;34.25;;;21.52;;
18822;SDS011;9540;51.550;7.980;2023-05-07T06:28:08;32.42;;;21.90;;
18822;SDS011;9540;51.550;7.980;2023-05-07T06:30:36;31.83;;;23.27;;
18822;SDS011;9540;51.550;7.980;2023-05-07T06:33:05;35.38;;;22.60;;
18822;SDS011;9540;51.550;7.980;2023-05-07T06:35:32;37.17;;;24.23;;
18822;SDS011;9540;51.550;7.980;2023-05-07T06:37:59;35.40;;;22.63;;
18822;SDS011;9540;51.550;7.980;2023-05-07T06:40:26;36.65;;;24.30;;
18822;SDS011;9540;51.550;7.980;2023-05-07T06:42:53;39.67;;;26.15;;
18822;SDS011;9540;51.550;7.980;2023-05-07T06:45:21;42.53;;;25.50;;
18822;SDS011;9540;51.550;7.980;2023-05-07T06:47:48;37.05;;;25.98;;
18822;SDS011;9540;51.550;7.980;2023-05-07T06:50:17;39.95;;;25.83;;
18822;SDS011;9540;51.550;7.980;2023-05-07T06:52:44;35.88;;;24.70;;
18822;SDS011;9540;51.550;7.980;2023-05-07T06:55:11;36.65;;;25.05;;
18822;SDS011;9540;51.550;7.980;2023-05-07T06:57:38;38.78;;;25.60;;
18822;SDS011;9540;51.550;7.980;2023-05-07T07:00:06;38.38;;;24.67;;
18822;SDS011;9540;51.550;7.980;2023-05-07T07:02:35;43.03;;;25.50;;
18822;SDS011;9540;51.550;7.980;2023-05-07T07:05:02;36.08;;;23.85;;
18822;SDS011;9540;51.550;7.980;2023-05-07T07:07:31;31.95;;;25.02;;
18822;SDS011;9540;51.550;7.980;2023-05-07T07:09:58;35.10;;;24.98;;
18822;SDS011;9540;51.550;7.980;2023-05-07T07:12:25;35.58;;;24.05;;
18822;SDS011;9540;51.550;7.980;2023-05-07T07:14:54;31.50;;;24.13;;
18822;SDS011;9540;51.550;7.980;2023-05-07T07:17:21;36.65;;;23.60;;
18822;SDS011;9540;51.550;7.980;2023-05-07T07:19:48;33.63;;;23.70;;
18822;SDS011;9540;51.550;7.980;2023-05-07T07:22:15;31.83;;;23.52;;
18822;SDS011;9540;51.550;7.980;2023-05-07T07:24:44;33.28;;;23.73;;
18822;SDS011;9540;51.550;7.980;2023-05-07T07:27:11;40.15;;;25.75;;
18822;SDS011;9540;51.550;7.980;2023-05-07T07:29:38;35.17;;;24.08;;
18822;SDS011;9540;51.550;7.980;2023-05-07T07:32:05;34.75;;;22.20;;
18822;SDS011;9540;51.550;7.980;2023-05-07T07:34:32;28.90;;;22.10;;
18822;SDS011;9540;51.550;7.980;2023-05-07T07:36:59;35.10;;;23.42;;
18822;SDS011;9540;51.550;7.980;2023-05-07T07:39:30;30.55;;;22.35;;
18822;SDS011;9540;51.550;7.980;2023-05-07T07:41:58;29.88;;;22.00;;
18822;SDS011;9540;51.550;7.980;2023-05-07T07:44:26;26.38;;;19.92;;
18822;SDS011;9540;51.550;7.980;2023-05-07T07:46:56;27.98;;;21.38;;
18822;SDS011;9540;51.550;7.980;2023-05-07T07:49:23;28.58;;;21.60;;
18822;SDS011;9540;51.550;7.980;2023-05-07T07:51:51;29.40;;;20.88;;
18822;SDS011;9540;51.550;7.980;2023-05-07T07:54:18;24.95;;;20.52;;
18822;SDS011;9540;51.550;7.980;2023-05-07T07:56:45;27.25;;;20.65;;
18822;SDS011;9540;51.550;7.980;2023-05-07T07:59:13;25.67;;;19.55;;
18822;SDS011;9540;51.550;7.980;2023-05-07T08:01:43;26.48;;;19.48;;
18822;SDS011;9540;51.550;7.980;2023-05-07T08:04:11;25.02;;;19.15;;
18822;SDS011;9540;51.550;7.980;2023-05-07T08:06:38;28.92;;;19.23;;
18822;SDS011;9540;51.550;7.980;2023-05-07T08:09:05;23.50;;;19.23;;
18822;SDS011;9540;51.550;7.980;2023-05-07T08:11:32;27.30;;;19.65;;
18822;SDS011;9540;51.550;7.980;2023-05-07T08:13:59;26.27;;;20.30;;
18822;SDS011;9540;51.550;7.980;2023-05-07T08:16:28;25.50;;;19.30;;
18822;SDS011;9540;51.550;7.980;2023-05-07T08:18:55;26.90;;;19.63;;
18822;SDS011;9540;51.550;7.980;2023-05-07T08:21:22;26.77;;;19.95;;
18822;SDS011;9540;51.550;7.980;2023-05-07T08:23:51;27.58;;;18.95;;
18822;SDS011;9540;51.550;7.980;2023-05-07T08:26:18;26.50;;;19.77;;
18822;SDS011;9540;51.550;7.980;2023-05-07T08:28:45;27.27;;;20.80;;
18822;SDS011;9540;51.550;7.980;2023-05-07T08:31:13;24.30;;;18.80;;
18822;SDS011;9540;51.550;7.980;2023-05-07T08:33:41;22.20;;;17.85;;
18822;SDS011;9540;51.550;7.980;2023-05-07T08:36:08;25.40;;;18.70;;
18822;SDS011;9540;51.550;7.980;2023-05-07T08:38:35;25.50;;;19.00;;
18822;SDS011;9540;51.550;7.980;2023-05-07T08:41:02;24.15;;;18.60;;
18822;SDS011;9540;51.550;7.980;2023-05-07T08:43:32;26.02;;;19.10;;
18822;SDS011;9540;51.550;7.980;2023-05-07T08:46:02;26.00;;;18.52;;
18822;SDS011;9540;51.550;7.980;2023-05-07T08:48:31;23.90;;;17.85;;
18822;SDS011;9540;51.550;7.980;2023-05-07T08:51:00;22.20;;;17.80;;
18822;SDS011;9540;51.550;7.980;2023-05-07T08:53:28;22.90;;;16.70;;
18822;SDS011;9540;51.550;7.980;2023-05-07T08:55:55;19.63;;;16.17;;
18822;SDS011;9540;51.550;7.980;2023-05-07T08:58:22;20.15;;;16.33;;
18822;SDS011;9540;51.550;7.980;2023-05-07T09:00:49;23.15;;;16.50;;
18822;SDS011;9540;51.550;7.980;2023-05-07T09:03:19;18.10;;;14.60;;
18822;SDS011;9540;51.550;7.980;2023-05-07T09:05:46;20.88;;;14.43;;
18822;SDS011;9540;51.550;7.980;2023-05-07T09:08:15;21.33;;;16.60;;
18822;SDS011;9540;51.550;7.980;2023-05-07T09:10:42;18.52;;;15.00;;
18822;SDS011;9540;51.550;7.980;2023-05-07T09:13:11;20.40;;;15.45;;
18822;SDS011;9540;51.550;7.980;2023-05-07T09:15:39;20.90;;;15.35;;
18822;SDS011;9540;51.550;7.980;2023-05-07T09:18:06;19.17;;;15.82;;
18822;SDS011;9540;51.550;7.980;2023-05-07T09:20:33;19.35;;;15.45;;
18822;SDS011;9540;51.550;7.980;2023-05-07T09:23:02;21.55;;;16.35;;
18822;SDS011;9540;51.550;7.980;2023-05-07T09:25:31;22.35;;;16.33;;
18822;SDS011;9540;51.550;7.980;2023-05-07T09:27:59;19.52;;;15.90;;
18822;SDS011;9540;51.550;7.980;2023-05-07T09:30:27;19.70;;;16.40;;
18822;SDS011;9540;51.550;7.980;2023-05-07T09:32:55;22.25;;;15.98;;
18822;SDS011;9540;51.550;7.980;2023-05-07T09:35:24;19.25;;;15.13;;
18822;SDS011;9540;51.550;7.980;2023-05-07T09:37:52;16.90;;;13.98;;
18822;SDS011;9540;51.550;7.980;2023-05-07T09:40:20;22.08;;;15.68;;
18822;SDS011;9540;51.550;7.980;2023-05-07T09:42:49;21.48;;;15.52;;
18822;SDS011;9540;51.550;7.980;2023-05-07T09:45:21;22.50;;;17.25;;
18822;SDS011;9540;51.550;7.980;2023-05-07T09:47:49;22.50;;;15.90;;
18822;SDS011;9540;51.550;7.980;2023-05-07T09:50:19;21.95;;;16.48;;
18822;SDS011;9540;51.550;7.980;2023-05-07T09:52:52;21.38;;;16.13;;
18822;SDS011;9540;51.550;7.980;2023-05-07T09:55:20;20.33;;;15.05;;
18822;SDS011;9540;51.550;7.980;2023-05-07T09:57:49;17.42;;;14.50;;
18822;SDS011;9540;51.550;7.980;2023-05-07T10:00:17;18.90;;;13.75;;
18822;SDS011;9540;51.550;7.980;2023-05-07T10:02:46;18.65;;;14.00;;
18822;SDS011;9540;51.550;7.980;2023-05-07T10:05:14;21.67;;;14.52;;
18822;SDS011;9540;51.550;7.980;2023-05-07T10:07:42;22.42;;;15.25;;
18822;SDS011;9540;51.550;7.980;2023-05-07T10:10:10;19.55;;;13.95;;
18822;SDS011;9540;51.550;7.980;2023-05-07T10:12:38;17.00;;;13.32;;
18822;SDS011;9540;51.550;7.980;2023-05-07T10:15:08;18.08;;;14.13;;
18822;SDS011;9540;51.550;7.980;2023-05-07T10:17:36;18.40;;;14.98;;
18822;SDS011;9540;51.550;7.980;2023-05-07T10:20:05;17.77;;;15.05;;
18822;SDS011;9540;51.550;7.980;2023-05-07T10:22:38;17.38;;;13.57;;
18822;SDS011;9540;51.550;7.980;2023-05-07T10:25:09;19.58;;;14.25;;
18822;SDS011;9540;51.550;7.980;2023-05-07T10:27:42;17.27;;;13.25;;
18822;SDS011;9540;51.550;7.980;2023-05-07T10:30:15;17.05;;;14.13;;
18822;SDS011;9540;51.550;7.980;2023-05-07T10:32:53;20.88;;;15.13;;
18822;SDS011;9540;51.550;7.980;2023-05-07T10:35:24;15.80;;;12.68;;
18822;SDS011;9540;51.550;7.980;2023-05-07T10:37:53;15.60;;;13.23;;
18822;SDS011;9540;51.550;7.980;2023-05-07T10:40:20;15.15;;;11.90;;
18822;SDS011;9540;51.550;7.980;2023-05-07T10:42:55;14.93;;;11.57;;
18822;SDS011;9540;51.550;7.980;2023-05-07T10:45:26;18.60;;;12.50;;
18822;SDS011;9540;51.550;7.980;2023-05-07T10:48:06;15.23;;;12.00;;
18822;SDS011;9540;51.550;7.980;2023-05-07T10:50:37;13.43;;;11.77;;
18822;SDS011;9540;51.550;7.980;2023-05-07T10:53:23;19.20;;;11.15;;
18822;SDS011;9540;51.550;7.980;2023-05-07T10:58:55;14.25;;;10.38;;
18822;SDS011;9540;51.550;7.980;2023-05-07T11:01:54;16.17;;;10.88;;
18822;SDS011;9540;51.550;7.980;2023-05-07T11:04:22;17.50;;;11.18;;
18822;SDS011;9540;51.550;7.980;2023-05-07T11:09:56;12.95;;;9.88;;
18822;SDS011;9540;51.550;7.980;2023-05-07T11:12:52;12.93;;;10.35;;
18822;SDS011;9540;51.550;7.980;2023-05-07T11:15:36;10.25;;;8.88;;
18822;SDS011;9540;51.550;7.980;2023-05-07T11:18:10;12.30;;;10.20;;
18822;SDS011;9540;51.550;7.980;2023-05-07T11:20:44;17.17;;;10.27;;
18822;SDS011;9540;51.550;7.980;2023-05-07T11:26:16;13.32;;;10.10;;
18822;SDS011;9540;51.550;7.980;2023-05-07T11:28:43;15.45;;;10.60;;
18822;SDS011;9540;51.550;7.980;2023-05-07T11:31:11;11.98;;;9.57;;
18822;SDS011;9540;51.550;7.980;2023-05-07T11:33:39;9.90;;;8.90;;
18822;SDS011;9540;51.550;7.980;2023-05-07T11:36:07;14.93;;;9.90;;
18822;SDS011;9540;51.550;7.980;2023-05-07T11:38:35;10.18;;;8.82;;
18822;SDS011;9540;51.550;7.980;2023-05-07T11:41:03;8.20;;;7.25;;
18822;SDS011;9540;51.550;7.980;2023-05-07T11:43:34;9.85;;;8.15;;
18822;SDS011;9540;51.550;7.980;2023-05-07T11:46:05;14.40;;;10.32;;
18822;SDS011;9540;51.550;7.980;2023-05-07T11:48:34;9.90;;;7.47;;
18822;SDS011;9540;51.550;7.980;2023-05-07T11:51:03;9.38;;;7.30;;
18822;SDS011;9540;51.550;7.980;2023-05-07T11:53:38;9.45;;;7.95;;
18822;SDS011;9540;51.550;7.980;2023-05-07T11:56:06;14.43;;;7.80;;
18822;SDS011;9540;51.550;7.980;2023-05-07T11:58:35;12.43;;;7.90;;
18822;SDS011;9540;51.550;7.980;2023-05-07T12:01:02;10.27;;;7.57;;
18822;SDS011;9540;51.550;7.980;2023-05-07T12:03:30;10.23;;;8.48;;
18822;SDS011;9540;51.550;7.980;2023-05-07T12:05:57;11.38;;;8.90;;
18822;SDS011;9540;51.550;7.980;2023-05-07T12:08:27;12.90;;;8.45;;
18822;SDS011;9540;51.550;7.980;2023-05-07T12:10:54;11.73;;;9.20;;
18822;SDS011;9540;51.550;7.980;2023-05-07T12:13:22;11.45;;;8.57;;
18822;SDS011;9540;51.550;7.980;2023-05-07T12:15:50;11.73;;;9.40;;
18822;SDS011;9540;51.550;7.980;2023-05-07T12:18:18;12.57;;;8.98;;
18822;SDS011;9540;51.550;7.980;2023-05-07T12:20:46;9.73;;;7.82;;
18822;SDS011;9540;51.550;7.980;2023-05-07T12:23:13;9.05;;;7.55;;
18822;SDS011;9540;51.550;7.980;2023-05-07T12:25:43;10.15;;;8.13;;
18822;SDS011;9540;51.550;7.980;2023-05-07T12:28:13;12.95;;;7.68;;
18822;SDS011;9540;51.550;7.980;2023-05-07T12:30:40;8.10;;;7.00;;
18822;SDS011;9540;51.550;7.980;2023-05-07T12:33:09;9.23;;;7.40;;
18822;SDS011;9540;51.550;7.980;2023-05-07T12:35:36;13.63;;;7.70;;
18822;SDS011;9540;51.550;7.980;2023-05-07T12:38:07;12.73;;;7.70;;
18822;SDS011;9540;51.550;7.980;2023-05-07T12:40:36;9.05;;;7.47;;
18822;SDS011;9540;51.550;7.980;2023-05-07T12:43:06;11.27;;;7.07;;
18822;SDS011;9540;51.550;7.980;2023-05-07T12:45:36;8.90;;;6.70;;
18822;SDS011;9540;51.550;7.980;2023-05-07T12:48:05;6.90;;;6.22;;
18822;SDS011;9540;51.550;7.980;2023-05-07T12:50:32;10.20;;;6.72;;
18822;SDS011;9540;51.550;7.980;2023-05-07T12:52:59;8.93;;;6.90;;
18822;SDS011;9540;51.550;7.980;2023-05-07T12:55:31;6.75;;;5.43;;
18822;SDS011;9540;51.550;7.980;2023-05-07T12:58:00;7.95;;;6.00;;
18822;SDS011;9540;51.550;7.980;2023-05-07T13:00:38;8.63;;;6.38;;
18822;SDS011;9540;51.550;7.980;2023-05-07T13:03:05;6.88;;;5.97;;
18822;SDS011;9540;51.550;7.980;2023-05-07T13:05:32;7.20;;;6.28;;
18822;SDS011;9540;51.550;7.980;2023-05-07T13:08:00;8.00;;;6.22;;
18822;SDS011;9540;51.550;7.980;2023-05-07T13:10:27;6.28;;;5.53;;
18822;SDS011;9540;51.550;7.980;2023-05-07T13:12:54;6.45;;;5.28;;
18822;SDS011;9540;51.550;7.980;2023-05-07T13:15:22;6.88;;;6.15;;
18822;SDS011;9540;51.550;7.980;2023-05-07T13:17:50;7.43;;;5.80;;
18822;SDS011;9540;51.550;7.980;2023-05-07T13:20:17;7.55;;;6.43;;
18822;SDS011;9540;51.550;7.980;2023-05-07T13:22:44;6.40;;;5.78;;
18822;SDS011;9540;51.550;7.980;2023-05-07T13:25:11;8.90;;;6.15;;
18822;SDS011;9540;51.550;7.980;2023-05-07T13:27:39;6.95;;;5.60;;
18822;SDS011;9540;51.550;7.980;2023-05-07T13:30:06;6.97;;;5.43;;
18822;SDS011;9540;51.550;7.980;2023-05-07T13:32:34;3.20;;;2.83;;
18822;SDS011;9540;51.550;7.980;2023-05-07T13:35:02;3.83;;;3.53;;
18822;SDS011;9540;51.550;7.980;2023-05-07T13:37:30;3.47;;;3.17;;
18822;SDS011;9540;51.550;7.980;2023-05-07T13:39:57;3.80;;;3.40;;
18822;SDS011;9540;51.550;7.980;2023-05-07T13:42:24;4.38;;;3.40;;
18822;SDS011;9540;51.550;7.980;2023-05-07T13:44:51;4.47;;;3.88;;
18822;SDS011;9540;51.550;7.980;2023-05-07T13:47:18;5.97;;;4.38;;
18822;SDS011;9540;51.550;7.980;2023-05-07T13:49:45;6.32;;;4.25;;
18822;SDS011;9540;51.550;7.980;2023-05-07T13:52:16;5.20;;;4.10;;
18822;SDS011;9540;51.550;7.980;2023-05-07T13:54:43;6.85;;;4.20;;
18822;SDS011;9540;51.550;7.980;2023-05-07T13:57:10;6.07;;;4.10;;
18822;SDS011;9540;51.550;7.980;2023-05-07T13:59:37;6.13;;;4.55;;
18822;SDS011;9540;51.550;7.980;2023-05-07T14:02:04;4.70;;;4.20;;
18822;SDS011;9540;51.550;7.980;2023-05-07T14:04:32;7.32;;;4.68;;
18822;SDS011;9540;51.550;7.980;2023-05-07T14:06:59;4.78;;;4.38;;
18822;SDS011;9540;51.550;7.980;2023-05-07T14:09:27;5.18;;;4.68;;
18822;SDS011;9540;51.550;7.980;2023-05-07T14:11:55;7.20;;;4.40;;
18822;SDS011;9540;51.550;7.980;2023-05-07T14:14:22;5.15;;;4.65;;
18822;SDS011;9540;51.550;7.980;2023-05-07T14:16:49;6.78;;;4.60;;
18822;SDS011;9540;51.550;7.980;2023-05-07T14:19:16;6.25;;;4.00;;
18822;SDS011;9540;51.550;7.980;2023-05-07T14:21:43;6.50;;;4.20;;
18822;SDS011;9540;51.550;7.980;2023-05-07T14:24:10;5.82;;;3.75;;
18822;SDS011;9540;51.550;7.980;2023-05-07T14:26:39;3.83;;;3.53;;
18822;SDS011;9540;51.550;7.980;2023-05-07T14:29:06;9.35;;;3.13;;
18822;SDS011;9540;51.550;7.980;2023-05-07T14:31:33;4.70;;;2.38;;
18822;SDS011;9540;51.550;7.980;2023-05-07T14:34:00;5.50;;;2.58;;
18822;SDS011;9540;51.550;7.980;2023-05-07T14:36:27;2.97;;;2.47;;
18822;SDS011;9540;51.550;7.980;2023-05-07T14:38:56;5.68;;;2.30;;
18822;SDS011;9540;51.550;7.980;2023-05-07T14:41:24;2.03;;;1.92;;
18822;SDS011;9540;51.550;7.980;2023-05-07T14:43:53;1.70;;;1.60;;
18822;SDS011;9540;51.550;7.980;2023-05-07T14:46:20;1.88;;;1.60;;
18822;SDS011;9540;51.550;7.980;2023-05-07T14:48:49;1.42;;;1.33;;
18822;SDS011;9540;51.550;7.980;2023-05-07T14:51:16;1.60;;;1.40;;
18822;SDS011;9540;51.550;7.980;2023-05-07T14:53:43;2.67;;;1.33;;
18822;SDS011;9540;51.550;7.980;2023-05-07T14:56:10;1.65;;;1.55;;